createdAt,value
2023-10-23T00:00:09.534Z,11.25
2023-10-23T00:02:39.599Z,10.98
2023-10-23T00:05:08.644Z,11.02
2023-10-23T00:07:37.137Z,11.18
2023-10-23T00:10:06.213Z,11.95
2023-10-23T00:12:35.808Z,10.85
2023-10-23T00:15:06.355Z,12.23
2023-10-23T00:17:34.925Z,10.82
2023-10-23T00:20:03.504Z,11.18
2023-10-23T00:22:31.771Z,11.02
2023-10-23T00:24:59.977Z,12.63
2023-10-23T00:27:28.894Z,13.48
2023-10-23T00:29:58.809Z,13.85
2023-10-23T00:32:27.090Z,12.68
2023-10-23T00:34:55.435Z,12.02
2023-10-23T00:37:23.754Z,12.73
2023-10-23T00:39:52.025Z,12.73
2023-10-23T00:42:20.322Z,12.02
2023-10-23T00:44:48.438Z,12.20
2023-10-23T00:47:19.696Z,12.82
2023-10-23T00:49:47.952Z,12.20
2023-10-23T00:52:16.740Z,11.38
2023-10-23T00:54:45.587Z,11.20
2023-10-23T00:57:14.181Z,10.75
2023-10-23T00:59:42.645Z,10.57
2023-10-23T01:02:12.213Z,11.20
2023-10-23T01:04:42.102Z,11.05
2023-10-23T01:07:10.416Z,10.43
2023-10-23T01:09:38.752Z,12.20
2023-10-23T01:12:08.466Z,12.07
2023-10-23T01:14:36.885Z,12.07
2023-10-23T01:17:05.665Z,10.73
2023-10-23T01:19:33.795Z,10.13
2023-10-23T01:22:04.702Z,10.40
2023-10-23T01:24:37.866Z,10.10
2023-10-23T01:27:07.703Z,10.63
2023-10-23T01:29:35.858Z,10.07
2023-10-23T01:32:04.242Z,9.43
2023-10-23T01:34:32.467Z,8.82
2023-10-23T01:37:00.589Z,9.10
2023-10-23T01:39:28.893Z,8.75
2023-10-23T01:41:57.062Z,9.05
2023-10-23T01:44:26.816Z,9.10
2023-10-23T01:46:55.142Z,9.23
2023-10-23T01:49:23.439Z,10.02
2023-10-23T01:51:51.859Z,9.27
2023-10-23T01:54:20.390Z,9.35
2023-10-23T01:56:48.631Z,9.30
2023-10-23T01:59:16.860Z,9.85
2023-10-23T02:01:46.719Z,10.95
2023-10-23T02:04:15.369Z,11.07
2023-10-23T02:06:43.737Z,10.48
2023-10-23T02:09:13.566Z,9.52
2023-10-23T02:11:41.791Z,11.18
2023-10-23T02:14:10.405Z,11.50
2023-10-23T02:16:38.637Z,11.27
2023-10-23T02:19:09.935Z,10.75
2023-10-23T02:21:38.536Z,11.70
2023-10-23T02:24:07.593Z,11.73
2023-10-23T02:26:35.701Z,11.32
2023-10-23T02:29:03.775Z,11.05
2023-10-23T02:31:31.877Z,10.85
2023-10-23T02:34:00.260Z,11.60
2023-10-23T02:36:30.435Z,12.07
2023-10-23T02:38:59.030Z,12.13
2023-10-23T02:41:27.359Z,13.68
2023-10-23T02:43:55.591Z,12.13
2023-10-23T02:46:23.882Z,11.80
2023-10-23T02:48:52.199Z,11.77
2023-10-23T02:51:20.688Z,13.60
2023-10-23T02:53:50.369Z,13.57
2023-10-23T02:56:18.609Z,13.43
2023-10-23T02:58:46.742Z,13.25
2023-10-23T03:01:20.849Z,11.68
2023-10-23T03:03:49.266Z,12.07
2023-10-23T03:06:18.333Z,11.88
2023-10-23T03:08:46.518Z,12.60
2023-10-23T03:11:16.025Z,11.85
2023-10-23T03:13:44.180Z,11.80
2023-10-23T03:16:15.714Z,11.07
2023-10-23T03:18:44.181Z,11.13
2023-10-23T03:21:12.419Z,11.10
2023-10-23T03:23:40.599Z,11.30
2023-10-23T03:26:08.839Z,11.60
2023-10-23T03:28:38.473Z,11.25
2023-10-23T03:31:06.691Z,11.20
2023-10-23T03:33:35.136Z,11.27
2023-10-23T03:36:03.256Z,11.10
2023-10-23T03:38:32.007Z,11.52
2023-10-23T03:41:01.985Z,12.57
2023-10-23T03:43:30.540Z,11.95
2023-10-23T03:46:04.840Z,11.02
2023-10-23T03:48:35.789Z,12.63
2023-10-23T03:51:04.648Z,11.60
2023-10-23T03:53:32.853Z,12.57
2023-10-23T03:56:01.035Z,12.05
2023-10-23T03:58:29.214Z,13.25
2023-10-23T04:00:58.780Z,13.48
2023-10-23T04:03:27.553Z,12.52
2023-10-23T04:05:55.793Z,17.67
2023-10-23T04:08:23.992Z,13.32
2023-10-23T04:10:52.237Z,15.90
2023-10-23T04:13:20.348Z,15.02
2023-10-23T04:15:56.284Z,17.63
2023-10-23T04:18:26.936Z,16.65
2023-10-23T04:21:04.849Z,17.23
2023-10-23T04:23:33.219Z,19.30
2023-10-23T04:26:01.708Z,17.95
2023-10-23T04:28:29.956Z,19.42
2023-10-23T04:30:58.294Z,18.55
2023-10-23T04:33:28.444Z,17.50
2023-10-23T04:35:58.065Z,17.77
2023-10-23T04:38:26.878Z,18.55
2023-10-23T04:40:55.268Z,19.13
2023-10-23T04:43:24.520Z,18.73
2023-10-23T04:45:54.294Z,21.10
2023-10-23T04:48:22.873Z,23.90
2023-10-23T04:50:52.328Z,22.98
2023-10-23T04:53:21.393Z,24.90
2023-10-23T04:55:49.562Z,25.13
2023-10-23T04:58:17.678Z,25.40
2023-10-23T05:00:46.460Z,25.77
2023-10-23T05:03:14.560Z,25.88
2023-10-23T05:05:49.934Z,23.95
2023-10-23T05:08:19.504Z,23.35
2023-10-23T05:10:47.993Z,28.13
2023-10-23T05:13:16.258Z,26.88
2023-10-23T05:15:44.469Z,26.48
2023-10-23T05:18:12.700Z,25.40
2023-10-23T05:20:40.881Z,25.00
2023-10-23T05:23:09.280Z,25.33
2023-10-23T05:25:39.066Z,24.92
2023-10-23T05:28:13.118Z,28.50
2023-10-23T05:30:41.471Z,28.73
2023-10-23T05:33:09.666Z,29.50
2023-10-23T05:35:43.900Z,28.40
2023-10-23T05:38:13.624Z,30.80
2023-10-23T05:40:46.022Z,30.67
2023-10-23T05:43:18.193Z,32.05
2023-10-23T05:45:46.637Z,33.60
2023-10-23T05:48:14.839Z,32.00
2023-10-23T05:50:42.835Z,32.47
2023-10-23T05:53:10.980Z,30.33
2023-10-23T05:55:39.059Z,30.77
2023-10-23T05:58:08.711Z,32.13
2023-10-23T06:00:36.950Z,32.67
2023-10-23T06:03:05.561Z,32.30
2023-10-23T06:05:33.894Z,34.25
2023-10-23T06:08:02.155Z,34.88
2023-10-23T06:10:30.592Z,33.10
2023-10-23T06:12:58.749Z,34.10
2023-10-23T06:15:28.441Z,33.95
2023-10-23T06:17:56.790Z,32.47
2023-10-23T06:20:24.892Z,32.67
2023-10-23T06:22:53.330Z,32.50
2023-10-23T06:25:21.721Z,34.20
2023-10-23T06:27:49.914Z,32.92
2023-10-23T06:30:18.375Z,35.42
2023-10-23T06:32:48.053Z,34.08
2023-10-23T06:35:19.700Z,34.08
2023-10-23T06:37:49.316Z,34.08
2023-10-23T06:40:17.649Z,34.95
2023-10-23T06:42:45.821Z,35.45
2023-10-23T06:45:21.484Z,37.28
2023-10-23T06:47:51.769Z,35.50
2023-10-23T06:50:20.107Z,35.33
2023-10-23T06:52:48.345Z,35.20
2023-10-23T06:55:19.040Z,37.58
2023-10-23T06:57:50.025Z,35.55
2023-10-23T07:00:21.112Z,35.83
2023-10-23T07:02:52.020Z,36.30
2023-10-23T07:05:20.221Z,36.72
2023-10-23T07:07:48.406Z,36.63
2023-10-23T07:10:19.193Z,37.00
2023-10-23T07:12:50.132Z,37.67
2023-10-23T07:15:18.431Z,36.35
2023-10-23T07:17:46.677Z,39.35
2023-10-23T07:20:18.514Z,36.08
2023-10-23T07:22:46.990Z,36.35
2023-10-23T07:25:15.867Z,38.47
2023-10-23T07:27:44.083Z,36.40
2023-10-23T07:30:15.022Z,37.95
2023-10-23T07:32:44.264Z,37.63
2023-10-23T07:35:12.675Z,37.97
2023-10-23T07:37:44.369Z,38.47
2023-10-23T07:40:13.881Z,38.15
2023-10-23T07:42:42.068Z,38.60
2023-10-23T07:45:11.667Z,37.08
2023-10-23T07:47:39.910Z,35.92
2023-10-23T07:50:09.238Z,35.53
2023-10-23T07:52:37.486Z,35.78
2023-10-23T07:55:09.750Z,36.13
2023-10-23T07:57:37.980Z,35.78
2023-10-23T08:00:09.924Z,35.35
2023-10-23T08:02:38.202Z,36.22
2023-10-23T08:05:07.255Z,34.65
2023-10-23T08:07:41.493Z,34.85
2023-10-23T08:10:11.883Z,34.97
2023-10-23T08:12:40.196Z,33.75
2023-10-23T08:15:10.300Z,35.15
2023-10-23T08:17:42.587Z,35.47
2023-10-23T08:20:12.444Z,33.78
2023-10-23T08:22:40.874Z,32.92
2023-10-23T08:25:10.948Z,34.20
2023-10-23T08:27:39.242Z,34.47
2023-10-23T08:30:09.610Z,34.70
2023-10-23T08:32:49.984Z,33.35
2023-10-23T08:35:21.459Z,33.35
2023-10-23T08:37:49.789Z,33.80
2023-10-23T08:40:24.491Z,34.92
2023-10-23T08:42:52.846Z,33.45
2023-10-23T08:45:21.308Z,34.47
2023-10-23T08:47:50.015Z,34.60
2023-10-23T08:50:19.661Z,34.70
2023-10-23T08:52:55.145Z,32.65
2023-10-23T08:55:28.591Z,33.95
2023-10-23T08:57:59.478Z,34.47
2023-10-23T09:00:27.759Z,33.22
2023-10-23T09:02:59.707Z,34.97
2023-10-23T09:05:28.149Z,33.95
2023-10-23T09:07:56.529Z,35.28
2023-10-23T09:10:27.515Z,35.83
2023-10-23T09:13:00.457Z,34.15
2023-10-23T09:15:31.660Z,32.75
2023-10-23T09:18:03.383Z,32.45
2023-10-23T09:20:31.762Z,32.60
2023-10-23T09:22:59.961Z,32.00
2023-10-23T09:25:29.619Z,31.92
2023-10-23T09:27:57.954Z,32.28
2023-10-23T09:30:26.431Z,32.47
2023-10-23T09:32:56.275Z,32.33
2023-10-23T09:35:26.856Z,31.00
2023-10-23T09:37:55.072Z,29.35
2023-10-23T09:40:24.956Z,30.13
2023-10-23T09:42:55.589Z,28.50
2023-10-23T09:45:24.921Z,29.27
2023-10-23T09:48:02.429Z,29.70
2023-10-23T09:50:32.670Z,27.77
2023-10-23T09:53:02.687Z,28.38
2023-10-23T09:55:32.909Z,28.52
2023-10-23T09:58:10.790Z,27.13
2023-10-23T10:00:40.341Z,27.52
2023-10-23T10:03:13.529Z,26.52
2023-10-23T10:05:54.082Z,28.00
2023-10-23T10:08:26.030Z,27.92
2023-10-23T10:11:00.882Z,26.13
2023-10-23T10:13:33.468Z,24.73
2023-10-23T10:16:02.401Z,24.42
2023-10-23T10:18:36.630Z,24.27
2023-10-23T10:21:11.840Z,24.15
2023-10-23T10:23:40.835Z,23.48
2023-10-23T10:26:10.102Z,23.58
2023-10-23T10:28:42.016Z,22.25
2023-10-23T10:31:10.555Z,22.90
2023-10-23T10:34:27.991Z,20.58
2023-10-23T10:36:46.018Z,21.42
2023-10-23T10:39:18.087Z,20.63
2023-10-23T10:41:46.877Z,19.13
2023-10-23T10:44:21.578Z,18.77
2023-10-23T10:46:55.356Z,18.73
2023-10-23T10:49:24.547Z,18.23
2023-10-23T10:51:53.606Z,18.10
2023-10-23T10:54:34.454Z,17.52
2023-10-23T10:57:02.839Z,17.70
2023-10-23T10:59:35.517Z,16.13
2023-10-23T11:02:03.689Z,15.60
2023-10-23T11:04:34.896Z,16.17
2023-10-23T11:07:04.092Z,16.13
2023-10-23T11:09:32.310Z,14.93
2023-10-23T11:12:00.946Z,15.07
2023-10-23T11:14:29.085Z,15.52
2023-10-23T11:16:58.695Z,15.32
2023-10-23T11:19:27.173Z,14.93
2023-10-23T11:22:08.776Z,15.35
2023-10-23T11:24:37.270Z,15.27
2023-10-23T11:27:06.931Z,14.93
2023-10-23T11:29:45.145Z,15.05
2023-10-23T11:32:15.413Z,13.05
2023-10-23T11:34:44.427Z,14.27
2023-10-23T11:37:15.814Z,14.27
2023-10-23T11:39:44.314Z,13.52
2023-10-23T11:42:12.972Z,12.80
2023-10-23T11:44:42.860Z,11.90
2023-10-23T11:47:11.328Z,12.95
2023-10-23T11:49:41.413Z,12.02
2023-10-23T11:52:09.625Z,11.82
2023-10-23T11:54:37.804Z,12.95
2023-10-23T11:57:08.191Z,12.27
2023-10-23T11:59:44.693Z,12.00
2023-10-23T12:02:13.077Z,12.05
2023-10-23T12:04:42.837Z,11.23
2023-10-23T12:07:11.264Z,11.05
2023-10-23T12:09:40.556Z,10.77
2023-10-23T12:12:12.707Z,11.85
2023-10-23T12:14:41.670Z,11.80
2023-10-23T12:17:09.846Z,11.50
2023-10-23T12:19:38.247Z,11.30
2023-10-23T12:22:08.381Z,12.02
2023-10-23T12:24:36.549Z,11.10
2023-10-23T12:27:06.120Z,10.20
2023-10-23T12:29:34.432Z,9.70
2023-10-23T12:32:05.739Z,9.38
2023-10-23T12:34:35.805Z,8.63
2023-10-23T12:37:09.342Z,9.13
2023-10-23T12:39:37.842Z,8.23
2023-10-23T12:42:06.656Z,8.40
2023-10-23T12:44:34.826Z,8.98
2023-10-23T12:47:06.258Z,9.32
2023-10-23T12:49:34.382Z,9.63
2023-10-23T12:52:02.664Z,10.52
2023-10-23T12:54:32.278Z,9.55
2023-10-23T12:57:00.303Z,9.60
2023-10-23T12:59:28.475Z,9.70
2023-10-23T13:01:56.705Z,10.18
2023-10-23T13:04:24.779Z,10.20
2023-10-23T13:06:54.356Z,10.65
2023-10-23T13:09:23.316Z,10.32
2023-10-23T13:11:53.522Z,10.77
2023-10-23T13:14:21.743Z,10.85
2023-10-23T13:16:50.027Z,10.88
2023-10-23T13:19:18.296Z,12.85
2023-10-23T13:21:46.367Z,12.35
2023-10-23T13:24:18.979Z,13.20
2023-10-23T13:26:47.217Z,13.20
2023-10-23T13:29:16.925Z,13.27
2023-10-23T13:31:49.443Z,13.88
2023-10-23T13:34:20.755Z,14.05
2023-10-23T13:36:49.011Z,15.80
2023-10-23T13:39:17.618Z,17.30
2023-10-23T13:41:45.878Z,18.45
2023-10-23T13:44:13.956Z,18.25
2023-10-23T13:46:46.432Z,18.85
2023-10-23T13:49:14.928Z,20.17
2023-10-23T13:51:43.094Z,19.80
2023-10-23T13:54:11.590Z,20.23
2023-10-23T13:56:39.746Z,20.90
2023-10-23T13:59:10.874Z,20.95
2023-10-23T14:01:39.404Z,21.25
2023-10-23T14:04:09.247Z,21.75
2023-10-23T14:06:37.642Z,21.35
2023-10-23T14:09:40.944Z,23.05
2023-10-23T14:12:01.433Z,22.75
2023-10-23T14:14:32.714Z,24.38
2023-10-23T14:17:02.236Z,24.20
2023-10-23T14:19:45.762Z,25.65
2023-10-23T14:22:16.137Z,24.98
2023-10-23T14:24:44.437Z,24.10
2023-10-23T14:27:18.694Z,25.17
2023-10-23T14:29:47.057Z,25.35
2023-10-23T14:32:15.137Z,24.75
2023-10-23T14:35:40.043Z,25.25
2023-10-23T14:38:08.735Z,25.27
2023-10-23T14:40:36.830Z,25.67
2023-10-23T14:43:08.056Z,25.77
2023-10-23T14:45:39.444Z,26.25
2023-10-23T14:48:08.159Z,24.42
2023-10-23T14:50:39.750Z,25.17
2023-10-23T14:53:08.311Z,23.63
2023-10-23T14:55:39.627Z,27.55
2023-10-23T14:58:07.852Z,26.95
2023-10-23T15:00:35.984Z,26.52
2023-10-23T15:03:04.680Z,26.20
2023-10-23T15:05:40.170Z,26.67
2023-10-23T15:08:09.752Z,29.45
2023-10-23T15:10:41.068Z,27.15
2023-10-23T15:13:09.542Z,28.60
2023-10-23T15:15:37.877Z,28.75
2023-10-23T15:18:06.270Z,28.25
2023-10-23T15:20:34.541Z,26.70
2023-10-23T15:23:03.477Z,29.10
2023-10-23T15:25:33.335Z,28.77
2023-10-23T15:28:05.599Z,27.98
2023-10-23T15:30:34.467Z,28.30
2023-10-23T15:33:03.056Z,27.88
2023-10-23T15:35:31.321Z,28.67
2023-10-23T15:38:00.983Z,28.90
2023-10-23T15:40:33.634Z,28.13
2023-10-23T15:43:03.184Z,29.23
2023-10-23T15:45:38.663Z,29.20
2023-10-23T15:50:42.611Z,28.77
2023-10-23T15:53:10.777Z,29.02
2023-10-23T15:55:39.180Z,31.08
2023-10-23T15:58:08.774Z,29.17
2023-10-23T16:00:37.242Z,31.65
2023-10-23T16:03:05.897Z,31.25
2023-10-23T16:05:34.482Z,30.63
2023-10-23T16:08:02.610Z,30.80
2023-10-23T16:10:34.399Z,28.92
2023-10-23T16:13:04.317Z,28.88
2023-10-23T16:15:34.220Z,29.27
2023-10-23T16:18:05.668Z,29.27
2023-10-23T16:20:34.503Z,31.23
2023-10-23T16:23:02.827Z,29.17
2023-10-23T16:25:31.004Z,29.98
2023-10-23T16:28:00.006Z,30.15
2023-10-23T16:30:28.737Z,30.25
2023-10-23T16:32:58.201Z,28.20
2023-10-23T16:35:26.931Z,30.60
2023-10-23T16:37:55.163Z,31.30
2023-10-23T16:40:24.147Z,31.20
2023-10-23T16:42:52.495Z,29.55
2023-10-23T16:45:20.953Z,29.17
2023-10-23T16:47:49.340Z,31.25
2023-10-23T16:50:19.131Z,32.55
2023-10-23T16:52:48.461Z,32.13
2023-10-23T16:55:18.106Z,32.58
2023-10-23T16:57:46.342Z,31.75
2023-10-23T17:00:17.594Z,32.10
2023-10-23T17:02:46.026Z,31.00
2023-10-23T17:05:15.461Z,31.10
2023-10-23T17:07:48.289Z,30.92
2023-10-23T17:10:18.430Z,32.03
2023-10-23T17:12:46.873Z,32.90
2023-10-23T17:15:15.865Z,32.28
2023-10-23T17:17:44.388Z,32.75
2023-10-23T17:20:13.743Z,32.25
2023-10-23T17:22:44.370Z,32.85
2023-10-23T17:25:14.162Z,33.55
2023-10-23T17:27:42.412Z,32.53
2023-10-23T17:30:12.760Z,32.13
2023-10-23T17:32:40.935Z,32.00
2023-10-23T17:35:12.450Z,32.78
2023-10-23T17:37:40.747Z,33.17
2023-10-23T17:40:12.146Z,31.10
2023-10-23T17:42:41.846Z,32.80
2023-10-23T17:45:11.788Z,32.17
2023-10-23T17:47:41.251Z,32.30
2023-10-23T17:50:09.896Z,32.05
2023-10-23T17:52:38.439Z,31.73
2023-10-23T17:55:11.109Z,32.45
2023-10-23T17:57:39.253Z,33.92
2023-10-23T18:00:11.645Z,34.47
2023-10-23T18:02:41.066Z,36.03
2023-10-23T18:05:10.395Z,35.38
2023-10-23T18:07:38.787Z,34.88
2023-10-23T18:10:08.270Z,34.33
2023-10-23T18:12:39.394Z,34.22
2023-10-23T18:15:10.301Z,33.67
2023-10-23T18:17:41.356Z,35.58
2023-10-23T18:20:11.344Z,33.50
2023-10-23T18:22:39.437Z,35.22
2023-10-23T18:25:09.212Z,34.67
2023-10-23T18:27:37.821Z,36.13
2023-10-23T18:30:09.253Z,35.15
2023-10-23T18:32:37.381Z,35.03
2023-10-23T18:35:08.386Z,36.88
2023-10-23T18:37:37.037Z,35.67
2023-10-23T18:40:06.297Z,37.00
2023-10-23T18:42:35.659Z,36.20
2023-10-23T18:45:06.487Z,37.08
2023-10-23T18:47:36.701Z,35.92
2023-10-23T18:50:06.145Z,37.13
2023-10-23T18:52:35.673Z,37.33
2023-10-23T18:55:04.726Z,37.78
2023-10-23T18:57:32.973Z,38.33
2023-10-23T19:00:01.607Z,36.33
2023-10-23T19:02:29.942Z,38.15
2023-10-23T19:04:59.507Z,38.20
2023-10-23T19:07:27.703Z,36.70
2023-10-23T19:09:59.127Z,37.85
2023-10-23T19:12:27.319Z,36.75
2023-10-23T19:14:55.565Z,36.97
2023-10-23T19:17:39.058Z,36.15
2023-10-23T19:20:11.472Z,37.72
2023-10-23T19:22:41.033Z,36.85
2023-10-23T19:25:10.760Z,36.75
2023-10-23T19:27:38.888Z,38.33
2023-10-23T19:30:13.236Z,37.92
2023-10-23T19:32:43.023Z,38.05
2023-10-23T19:35:16.376Z,38.13
2023-10-23T19:37:45.478Z,37.17
2023-10-23T19:40:16.057Z,37.28
2023-10-23T19:42:44.644Z,37.97
2023-10-23T19:45:14.133Z,37.35
2023-10-23T19:47:43.153Z,36.70
2023-10-23T19:50:14.803Z,36.13
2023-10-23T19:52:45.154Z,37.92
2023-10-23T19:55:43.474Z,37.63
2023-10-23T19:58:05.895Z,35.88
2023-10-23T20:00:34.501Z,35.38
2023-10-23T20:03:03.175Z,35.88
2023-10-23T20:05:33.216Z,36.78
2023-10-23T20:08:02.548Z,36.45
2023-10-23T20:10:31.024Z,36.65
2023-10-23T20:13:00.226Z,36.00
2023-10-23T20:15:30.420Z,37.55
2023-10-23T20:17:58.819Z,37.10
2023-10-23T20:20:27.759Z,36.22
2023-10-23T20:22:57.436Z,35.50
2023-10-23T20:25:25.878Z,35.85
2023-10-23T20:27:54.109Z,35.78
2023-10-23T20:30:22.457Z,35.55
2023-10-23T20:32:50.997Z,36.42
2023-10-23T20:35:19.841Z,37.47
2023-10-23T20:37:48.009Z,36.92
2023-10-23T20:40:17.747Z,35.75
2023-10-23T20:42:46.275Z,36.67
2023-10-23T20:45:14.860Z,35.78
2023-10-23T20:47:43.339Z,35.13
2023-10-23T20:50:12.486Z,36.85
2023-10-23T20:52:40.665Z,37.97
2023-10-23T20:55:09.833Z,37.30
2023-10-23T20:57:39.655Z,35.78
2023-10-23T21:00:09.634Z,36.53
2023-10-23T21:02:38.349Z,36.88
2023-10-23T21:05:08.029Z,36.60
2023-10-23T21:07:37.381Z,35.30
2023-10-23T21:10:07.374Z,34.05
2023-10-23T21:12:36.312Z,35.30
2023-10-23T21:15:06.828Z,36.05
2023-10-23T21:17:35.047Z,35.08
2023-10-23T21:20:03.352Z,35.60
2023-10-23T21:22:31.945Z,35.00
2023-10-23T21:25:00.184Z,34.90
2023-10-23T21:27:28.481Z,34.25
2023-10-23T21:29:56.607Z,34.55
2023-10-23T21:32:26.115Z,33.47
2023-10-23T21:34:54.605Z,34.28
2023-10-23T21:37:22.964Z,33.30
2023-10-23T21:39:51.277Z,32.60
2023-10-23T21:42:19.419Z,31.83
2023-10-23T21:44:47.517Z,32.25
2023-10-23T21:47:15.843Z,31.30
2023-10-23T21:49:45.494Z,31.90
2023-10-23T21:52:14.552Z,33.22
2023-10-23T21:54:43.476Z,31.27
2023-10-23T21:57:21.234Z,29.52
2023-10-23T21:59:52.751Z,31.45
2023-10-23T22:02:21.736Z,30.65
2023-10-23T22:04:52.447Z,30.60
2023-10-23T22:07:21.592Z,29.67
2023-10-23T22:09:50.734Z,29.00
2023-10-23T22:12:19.544Z,28.67
2023-10-23T22:14:48.457Z,29.23
2023-10-23T22:17:16.711Z,29.52
2023-10-23T22:19:45.099Z,28.30
2023-10-23T22:22:14.616Z,28.70
2023-10-23T22:24:42.708Z,28.02
2023-10-23T22:27:12.895Z,28.02
2023-10-23T22:29:41.168Z,27.95
2023-10-23T22:32:09.278Z,26.90
2023-10-23T22:34:37.644Z,28.70
2023-10-23T22:37:55.856Z,28.00
2023-10-23T22:39:55.622Z,26.73
2023-10-23T22:42:23.976Z,26.75
2023-10-23T22:44:52.106Z,28.42
2023-10-23T22:47:20.419Z,27.58
2023-10-23T22:49:50.044Z,27.67
2023-10-23T22:52:19.371Z,28.08
2023-10-23T22:54:48.310Z,27.98
2023-10-23T22:57:20.392Z,27.65
2023-10-23T22:59:49.513Z,27.85
2023-10-23T23:02:18.764Z,28.15
2023-10-23T23:04:48.044Z,28.52
2023-10-23T23:07:17.511Z,27.27
2023-10-23T23:09:46.436Z,27.33
2023-10-23T23:12:17.705Z,26.83
2023-10-23T23:14:46.552Z,25.85
2023-10-23T23:17:18.562Z,24.60
2023-10-23T23:19:51.801Z,24.10
2023-10-23T23:22:20.563Z,23.98
2023-10-23T23:24:48.759Z,24.48
2023-10-23T23:27:18.598Z,26.73
2023-10-23T23:29:46.756Z,22.45
2023-10-23T23:32:14.971Z,22.67
2023-10-23T23:34:43.514Z,23.33
2023-10-23T23:37:11.883Z,22.95
2023-10-23T23:39:40.016Z,21.70
2023-10-23T23:42:08.393Z,22.58
2023-10-23T23:44:38.066Z,22.65
2023-10-23T23:47:06.356Z,20.85
2023-10-23T23:49:34.746Z,20.10
2023-10-23T23:52:03.093Z,20.35
2023-10-23T23:54:31.431Z,20.63
2023-10-23T23:56:59.824Z,20.60
2023-10-23T23:59:28.133Z,19.05
